Agios Stilianos — SW6053 — position and weather

sailwx.info

Track history (hours):
 
Tides and Currents Weather Stations Pressure Air Temp Water Temp Dewpoint Dewpoint Depression Visibility Wind Speed Wind Dir Waves Ship Positions

Agios Stilianos

Last reported at 2017-Nov-20 00:30 UTC. Time now 2017-Nov-23 05:47 UTC.
Position N 40°53' E 024°26'.

Length 22 m; draft 2.6 m.

Type: Fishing. MMSI: 237350000.

Date/timePositionNaut miles runAvg speedWind from/ knotsBaromVisibWave heightAir tempDewpointWater temp
2017-Nov-20 00:30N 40°53' E 024°26'1 2.8
2017-Nov-20 00:01N 40°51' E 024°25'2 3.2
2017-Nov-19 23:30N 40°50' E 024°25'3 6.5
2017-Nov-19 23:00N 40°53' E 024°24'2 4.9
2017-Nov-19 22:31N 40°56' E 024°24'0 0.0
2017-Nov-19 22:01N 40°56' E 024°24'0 0.0
2017-Nov-19 21:31N 40°56' E 024°24'3 6.4
2017-Nov-19 21:01N 40°54' E 024°27'7 0.4
2017-Nov-19 05:37N 40°48' E 024°24'0 3.0
2017-Nov-19 05:30N 40°49' E 024°24'1 3.0
2017-Nov-19 05:01N 40°50' E 024°25'1 2.9
2017-Nov-19 04:30N 40°51' E 024°25'1 2.9
2017-Nov-19 04:00N 40°53' E 024°26'1 2.9
2017-Nov-19 03:30N 40°53' E 024°28'2 3.0
2017-Nov-19 03:00N 40°54' E 024°30'4 8.4
2017-Nov-19 02:30N 40°55' E 024°25'  
2017-Nov-15 19:21N 40°56' E 024°24'2 7.1
2017-Nov-15 19:00N 40°54' E 024°26'4 8.7
2017-Nov-15 18:30N 40°50' E 024°28'4 8.6
2017-Nov-15 18:00N 40°45' E 024°29'4 8.2
2017-Nov-15 17:29N 40°41' E 024°30'5 8.0
2017-Nov-15 16:52N 40°37' E 024°32'3 8.9
2017-Nov-15 16:29N 40°35' E 024°36'22 0.5
2017-Nov-13 23:32N 40°50' E 024°58'0 2.9
2017-Nov-13 23:27N 40°50' E 024°57'1 2.8
2017-Nov-13 22:59N 40°50' E 024°55'1 2.8
2017-Nov-13 22:27N 40°49' E 024°54'1 2.9
2017-Nov-13 22:00N 40°48' E 024°52'5 0.2
2017-Nov-13 02:00N 40°48' E 024°46'4 7.9
2017-Nov-13 01:30N 40°51' E 024°42'1 0.6
2017-Nov-13 00:18N 40°51' E 024°42'0 0.0
2017-Nov-13 00:00N 40°51' E 024°42'0 0.0
2017-Nov-12 23:29N 40°51' E 024°42'1 1.6
2017-Nov-12 23:00N 40°51' E 024°41'4 8.0
2017-Nov-12 22:30N 40°49' E 024°45'4 7.7
2017-Nov-12 22:00N 40°47' E 024°50'1 1.8
2017-Nov-12 21:31N 40°47' E 024°51'2 2.8
2017-Nov-12 20:55N 40°48' E 024°52'4 3.0
2017-Nov-12 19:41N 40°50' E 024°56'0 0.8
2017-Nov-12 19:22N 40°50' E 024°56'1 2.9
2017-Nov-12 18:58N 40°49' E 024°55'5 0.4
2017-Nov-12 04:57N 40°50' E 025°02'1 2.9
2017-Nov-12 04:29N 40°50' E 024°60'1 2.9
2017-Nov-12 03:58N 40°50' E 024°58'1 2.9
2017-Nov-12 03:29N 40°50' E 024°56'1 2.8
2017-Nov-12 03:00N 40°49' E 024°55'1 2.8
2017-Nov-12 02:29N 40°48' E 024°53'1 2.9
2017-Nov-12 02:00N 40°48' E 024°51'2 3.3
2017-Nov-12 01:30N 40°46' E 024°50'1 1.4
2017-Nov-12 01:00N 40°47' E 024°51'2 2.8
2017-Nov-12 00:25N 40°48' E 024°52'3 2.9
2017-Nov-11 23:32N 40°49' E 024°55'0 2.9
2017-Nov-11 23:27N 40°49' E 024°55'2 2.9
2017-Nov-11 22:55N 40°50' E 024°57'1 2.9
2017-Nov-11 22:30N 40°50' E 024°59'1 2.9
2017-Nov-11 22:00N 40°50' E 025°01'1 2.3
2017-Nov-11 21:30N 40°50' E 025°02'2 2.5
2017-Nov-11 20:44N 40°50' E 024°60'1 2.9
2017-Nov-11 20:21N 40°50' E 024°58'1 2.9
2017-Nov-11 19:57N 40°50' E 024°57'1 2.8
2017-Nov-11 19:28N 40°49' E 024°55'2 2.8
2017-Nov-11 18:56N 40°49' E 024°53'1 2.8
2017-Nov-11 18:30N 40°48' E 024°52'1 2.8
2017-Nov-11 18:00N 40°47' E 024°51'1 0.1
2017-Nov-11 04:49N 40°46' E 024°51'0 1.0
2017-Nov-11 04:24N 40°47' E 024°51'4 2.7
2017-Nov-11 02:55N 40°49' E 024°55'0 1.0
2017-Nov-11 02:29N 40°49' E 024°55'1 2.8
2017-Nov-11 01:59N 40°49' E 024°53'1 2.8
2017-Nov-11 01:29N 40°48' E 024°52'1 2.9
2017-Nov-11 01:00N 40°47' E 024°51'2 3.4
2017-Nov-11 00:30N 40°47' E 024°48'4 8.0
2017-Nov-11 00:00N 40°49' E 024°44'3 6.7
2017-Nov-10 23:30N 40°52' E 024°41'1 1.1
2017-Nov-10 23:00N 40°51' E 024°42'0 0.0
2017-Nov-10 22:30N 40°51' E 024°42'1 1.6
2017-Nov-10 22:00N 40°51' E 024°42'4 7.6
2017-Nov-10 21:30N 40°49' E 024°46'4 6.9
2017-Nov-10 20:59N 40°46' E 024°50'1 1.7
2017-Nov-10 20:29N 40°47' E 024°51'8 2.8
2017-Nov-10 17:46N 40°50' E 024°60'  
Track history (hours):
 
Tides and Currents Weather Stations Pressure Air Temp Water Temp Dewpoint Dewpoint Depression Visibility Wind Speed Wind Dir Waves Ship Positions

Agios Stilianos

Last reported at 2017-Nov-20 00:30 UTC. Time now 2017-Nov-23 05:47 UTC.
Position N 40°53' E 024°26'.

Length 22 m; draft 2.6 m.

Type: Fishing. MMSI: 237350000.

Date/timePositionNaut miles runAvg speedWind from/ knotsBaromVisibWave heightAir tempDewpointWater temp
2017-Nov-20 00:30N 40°53' E 024°26'1 2.8
2017-Nov-20 00:01N 40°51' E 024°25'2 3.2
2017-Nov-19 23:30N 40°50' E 024°25'3 6.5
2017-Nov-19 23:00N 40°53' E 024°24'2 4.9
2017-Nov-19 22:31N 40°56' E 024°24'0 0.0
2017-Nov-19 22:01N 40°56' E 024°24'0 0.0
2017-Nov-19 21:31N 40°56' E 024°24'3 6.4
2017-Nov-19 21:01N 40°54' E 024°27'7 0.4
2017-Nov-19 05:37N 40°48' E 024°24'0 3.0
2017-Nov-19 05:30N 40°49' E 024°24'1 3.0
2017-Nov-19 05:01N 40°50' E 024°25'1 2.9
2017-Nov-19 04:30N 40°51' E 024°25'1 2.9
2017-Nov-19 04:00N 40°53' E 024°26'1 2.9
2017-Nov-19 03:30N 40°53' E 024°28'2 3.0
2017-Nov-19 03:00N 40°54' E 024°30'4 8.4
2017-Nov-19 02:30N 40°55' E 024°25'  
2017-Nov-15 19:21N 40°56' E 024°24'2 7.1
2017-Nov-15 19:00N 40°54' E 024°26'4 8.7
2017-Nov-15 18:30N 40°50' E 024°28'4 8.6
2017-Nov-15 18:00N 40°45' E 024°29'4 8.2
2017-Nov-15 17:29N 40°41' E 024°30'5 8.0
2017-Nov-15 16:52N 40°37' E 024°32'3 8.9
2017-Nov-15 16:29N 40°35' E 024°36'22 0.5
2017-Nov-13 23:32N 40°50' E 024°58'0 2.9
2017-Nov-13 23:27N 40°50' E 024°57'1 2.8
2017-Nov-13 22:59N 40°50' E 024°55'1 2.8
2017-Nov-13 22:27N 40°49' E 024°54'1 2.9
2017-Nov-13 22:00N 40°48' E 024°52'5 0.2
2017-Nov-13 02:00N 40°48' E 024°46'4 7.9
2017-Nov-13 01:30N 40°51' E 024°42'1 0.6
2017-Nov-13 00:18N 40°51' E 024°42'0 0.0
2017-Nov-13 00:00N 40°51' E 024°42'0 0.0
2017-Nov-12 23:29N 40°51' E 024°42'1 1.6
2017-Nov-12 23:00N 40°51' E 024°41'4 8.0
2017-Nov-12 22:30N 40°49' E 024°45'4 7.7
2017-Nov-12 22:00N 40°47' E 024°50'1 1.8
2017-Nov-12 21:31N 40°47' E 024°51'2 2.8
2017-Nov-12 20:55N 40°48' E 024°52'4 3.0
2017-Nov-12 19:41N 40°50' E 024°56'0 0.8
2017-Nov-12 19:22N 40°50' E 024°56'1 2.9
2017-Nov-12 18:58N 40°49' E 024°55'5 0.4
2017-Nov-12 04:57N 40°50' E 025°02'1 2.9
2017-Nov-12 04:29N 40°50' E 024°60'1 2.9
2017-Nov-12 03:58N 40°50' E 024°58'1 2.9
2017-Nov-12 03:29N 40°50' E 024°56'1 2.8
2017-Nov-12 03:00N 40°49' E 024°55'1 2.8
2017-Nov-12 02:29N 40°48' E 024°53'1 2.9
2017-Nov-12 02:00N 40°48' E 024°51'2 3.3
2017-Nov-12 01:30N 40°46' E 024°50'1 1.4
2017-Nov-12 01:00N 40°47' E 024°51'2 2.8
2017-Nov-12 00:25N 40°48' E 024°52'3 2.9
2017-Nov-11 23:32N 40°49' E 024°55'0 2.9
2017-Nov-11 23:27N 40°49' E 024°55'2 2.9
2017-Nov-11 22:55N 40°50' E 024°57'1 2.9
2017-Nov-11 22:30N 40°50' E 024°59'1 2.9
2017-Nov-11 22:00N 40°50' E 025°01'1 2.3
2017-Nov-11 21:30N 40°50' E 025°02'2 2.5
2017-Nov-11 20:44N 40°50' E 024°60'1 2.9
2017-Nov-11 20:21N 40°50' E 024°58'1 2.9
2017-Nov-11 19:57N 40°50' E 024°57'1 2.8
2017-Nov-11 19:28N 40°49' E 024°55'2 2.8
2017-Nov-11 18:56N 40°49' E 024°53'1 2.8
2017-Nov-11 18:30N 40°48' E 024°52'1 2.8
2017-Nov-11 18:00N 40°47' E 024°51'1 0.1
2017-Nov-11 04:49N 40°46' E 024°51'0 1.0
2017-Nov-11 04:24N 40°47' E 024°51'4 2.7
2017-Nov-11 02:55N 40°49' E 024°55'0 1.0
2017-Nov-11 02:29N 40°49' E 024°55'1 2.8
2017-Nov-11 01:59N 40°49' E 024°53'1 2.8
2017-Nov-11 01:29N 40°48' E 024°52'1 2.9
2017-Nov-11 01:00N 40°47' E 024°51'2 3.4
2017-Nov-11 00:30N 40°47' E 024°48'4 8.0
2017-Nov-11 00:00N 40°49' E 024°44'3 6.7
2017-Nov-10 23:30N 40°52' E 024°41'1 1.1
2017-Nov-10 23:00N 40°51' E 024°42'0 0.0
2017-Nov-10 22:30N 40°51' E 024°42'1 1.6
2017-Nov-10 22:00N 40°51' E 024°42'4 7.6
2017-Nov-10 21:30N 40°49' E 024°46'4 6.9
2017-Nov-10 20:59N 40°46' E 024°50'1 1.7
2017-Nov-10 20:29N 40°47' E 024°51'8 2.8
2017-Nov-10 17:46N 40°50' E 024°60'  

Dump ship's entire track history